sensor_id;sensor_type;location;lat;lon;timestamp;P1;durP1;ratioP1;P2;durP2;ratioP2
69203;SDS011;56317;27.658;85.326;2022-09-24T00:01:23;45.10;;;23.98;;
69203;SDS011;56317;27.658;85.326;2022-09-24T00:03:53;42.00;;;20.88;;
69203;SDS011;56317;27.658;85.326;2022-09-24T00:06:22;45.53;;;24.38;;
69203;SDS011;56317;27.658;85.326;2022-09-24T00:08:50;45.92;;;23.92;;
69203;SDS011;56317;27.658;85.326;2022-09-24T00:11:22;46.45;;;23.38;;
69203;SDS011;56317;27.658;85.326;2022-09-24T00:13:51;45.33;;;24.23;;
69203;SDS011;56317;27.658;85.326;2022-09-24T00:16:19;49.22;;;27.08;;
69203;SDS011;56317;27.658;85.326;2022-09-24T00:18:50;46.72;;;25.75;;
69203;SDS011;56317;27.658;85.326;2022-09-24T00:21:22;47.80;;;27.05;;
69203;SDS011;56317;27.658;85.326;2022-09-24T00:23:52;48.45;;;27.10;;
69203;SDS011;56317;27.658;85.326;2022-09-24T00:26:22;47.92;;;27.85;;
69203;SDS011;56317;27.658;85.326;2022-09-24T00:29:08;51.70;;;27.85;;
69203;SDS011;56317;27.658;85.326;2022-09-24T00:31:37;46.70;;;28.05;;
69203;SDS011;56317;27.658;85.326;2022-09-24T00:34:04;68.85;;;36.35;;
69203;SDS011;56317;27.658;85.326;2022-09-24T00:36:31;57.65;;;28.63;;
69203;SDS011;56317;27.658;85.326;2022-09-24T00:38:59;51.70;;;27.92;;
69203;SDS011;56317;27.658;85.326;2022-09-24T00:41:28;62.72;;;31.23;;
69203;SDS011;56317;27.658;85.326;2022-09-24T00:43:57;49.80;;;27.17;;
69203;SDS011;56317;27.658;85.326;2022-09-24T00:48:53;47.42;;;27.98;;
69203;SDS011;56317;27.658;85.326;2022-09-24T00:51:44;46.90;;;27.58;;
69203;SDS011;56317;27.658;85.326;2022-09-24T00:54:16;44.60;;;26.98;;
69203;SDS011;56317;27.658;85.326;2022-09-24T00:56:48;50.90;;;27.08;;
69203;SDS011;56317;27.658;85.326;2022-09-24T00:59:17;45.75;;;26.38;;
69203;SDS011;56317;27.658;85.326;2022-09-24T01:01:47;48.20;;;25.50;;
69203;SDS011;56317;27.658;85.326;2022-09-24T01:04:16;55.03;;;30.92;;
69203;SDS011;56317;27.658;85.326;2022-09-24T01:06:48;48.42;;;27.75;;
69203;SDS011;56317;27.658;85.326;2022-09-24T01:09:16;49.60;;;26.88;;
69203;SDS011;56317;27.658;85.326;2022-09-24T01:14:45;49.80;;;25.42;;
69203;SDS011;56317;27.658;85.326;2022-09-24T01:25:39;45.33;;;24.85;;
69203;SDS011;56317;27.658;85.326;2022-09-24T01:31:31;49.17;;;27.13;;
69203;SDS011;56317;27.658;85.326;2022-09-24T01:33:51;38.35;;;23.17;;
69203;SDS011;56317;27.658;85.326;2022-09-24T01:36:20;38.90;;;23.10;;
69203;SDS011;56317;27.658;85.326;2022-09-24T01:38:49;50.15;;;26.40;;
69203;SDS011;56317;27.658;85.326;2022-09-24T01:41:18;39.22;;;23.50;;
69203;SDS011;56317;27.658;85.326;2022-09-24T01:43:47;37.38;;;23.08;;
69203;SDS011;56317;27.658;85.326;2022-09-24T01:46:15;49.88;;;23.90;;
69203;SDS011;56317;27.658;85.326;2022-09-24T01:48:44;41.28;;;22.67;;
69203;SDS011;56317;27.658;85.326;2022-09-24T01:51:17;42.42;;;21.83;;
69203;SDS011;56317;27.658;85.326;2022-09-24T01:54:01;39.55;;;22.13;;
69203;SDS011;56317;27.658;85.326;2022-09-24T01:59:43;41.90;;;22.92;;
69203;SDS011;56317;27.658;85.326;2022-09-24T02:02:21;33.80;;;20.20;;
69203;SDS011;56317;27.658;85.326;2022-09-24T02:05:10;34.80;;;18.60;;
69203;SDS011;56317;27.658;85.326;2022-09-24T02:07:49;34.58;;;20.08;;
69203;SDS011;56317;27.658;85.326;2022-09-24T02:11:00;32.15;;;19.63;;
69203;SDS011;56317;27.658;85.326;2022-09-24T02:13:25;37.80;;;20.63;;
69203;SDS011;56317;27.658;85.326;2022-09-24T02:16:03;42.50;;;23.42;;
69203;SDS011;56317;27.658;85.326;2022-09-24T02:18:35;31.42;;;19.02;;
69203;SDS011;56317;27.658;85.326;2022-09-24T02:21:08;35.05;;;19.17;;
69203;SDS011;56317;27.658;85.326;2022-09-24T02:23:39;39.75;;;21.25;;
69203;SDS011;56317;27.658;85.326;2022-09-24T02:26:12;32.28;;;20.45;;
69203;SDS011;56317;27.658;85.326;2022-09-24T02:28:39;32.80;;;20.10;;
69203;SDS011;56317;27.658;85.326;2022-09-24T02:31:10;33.05;;;20.27;;
69203;SDS011;56317;27.658;85.326;2022-09-24T02:33:45;32.60;;;19.02;;
69203;SDS011;56317;27.658;85.326;2022-09-24T02:36:33;32.13;;;18.58;;
69203;SDS011;56317;27.658;85.326;2022-09-24T02:39:01;32.03;;;17.23;;
69203;SDS011;56317;27.658;85.326;2022-09-24T02:41:28;28.42;;;17.02;;
69203;SDS011;56317;27.658;85.326;2022-09-24T02:43:56;25.92;;;15.68;;
69203;SDS011;56317;27.658;85.326;2022-09-24T02:46:24;24.67;;;15.60;;
69203;SDS011;56317;27.658;85.326;2022-09-24T02:48:51;27.48;;;15.48;;
69203;SDS011;56317;27.658;85.326;2022-09-24T02:51:18;25.80;;;17.00;;
69203;SDS011;56317;27.658;85.326;2022-09-24T02:53:46;26.08;;;16.73;;
69203;SDS011;56317;27.658;85.326;2022-09-24T02:56:13;26.33;;;16.65;;
69203;SDS011;56317;27.658;85.326;2022-09-24T02:58:40;27.52;;;16.23;;
69203;SDS011;56317;27.658;85.326;2022-09-24T03:01:07;31.92;;;17.92;;
69203;SDS011;56317;27.658;85.326;2022-09-24T03:03:35;32.13;;;17.83;;
69203;SDS011;56317;27.658;85.326;2022-09-24T03:06:02;28.50;;;18.00;;
69203;SDS011;56317;27.658;85.326;2022-09-24T03:08:29;30.98;;;18.60;;
69203;SDS011;56317;27.658;85.326;2022-09-24T03:10:56;32.85;;;18.00;;
69203;SDS011;56317;27.658;85.326;2022-09-24T03:13:25;27.52;;;17.88;;
69203;SDS011;56317;27.658;85.326;2022-09-24T03:15:52;29.55;;;17.67;;
69203;SDS011;56317;27.658;85.326;2022-09-24T03:18:19;30.27;;;18.63;;
69203;SDS011;56317;27.658;85.326;2022-09-24T03:21:28;30.45;;;19.08;;
69203;SDS011;56317;27.658;85.326;2022-09-24T03:23:37;31.98;;;18.80;;
69203;SDS011;56317;27.658;85.326;2022-09-24T03:26:05;27.35;;;17.52;;
69203;SDS011;56317;27.658;85.326;2022-09-24T03:28:32;30.73;;;18.60;;
69203;SDS011;56317;27.658;85.326;2022-09-24T03:31:00;27.73;;;18.30;;
69203;SDS011;56317;27.658;85.326;2022-09-24T03:38:37;26.80;;;17.83;;
69203;SDS011;56317;27.658;85.326;2022-09-24T03:41:06;37.00;;;19.98;;
69203;SDS011;56317;27.658;85.326;2022-09-24T03:43:34;39.72;;;24.38;;
69203;SDS011;56317;27.658;85.326;2022-09-24T03:46:02;37.55;;;22.80;;
69203;SDS011;56317;27.658;85.326;2022-09-24T03:48:34;38.83;;;20.58;;
69203;SDS011;56317;27.658;85.326;2022-09-24T03:51:04;33.40;;;20.75;;
69203;SDS011;56317;27.658;85.326;2022-09-24T03:53:32;38.13;;;21.88;;
69203;SDS011;56317;27.658;85.326;2022-09-24T03:56:00;41.05;;;23.27;;
69203;SDS011;56317;27.658;85.326;2022-09-24T03:58:28;37.25;;;22.38;;
69203;SDS011;56317;27.658;85.326;2022-09-24T04:00:56;36.88;;;22.00;;
69203;SDS011;56317;27.658;85.326;2022-09-24T04:03:24;39.22;;;22.92;;
69203;SDS011;56317;27.658;85.326;2022-09-24T04:05:51;42.67;;;22.35;;
69203;SDS011;56317;27.658;85.326;2022-09-24T04:08:20;33.45;;;20.30;;
69203;SDS011;56317;27.658;85.326;2022-09-24T04:10:48;27.98;;;17.77;;
69203;SDS011;56317;27.658;85.326;2022-09-24T04:13:16;37.38;;;18.20;;
69203;SDS011;56317;27.658;85.326;2022-09-24T04:15:44;25.20;;;16.70;;
69203;SDS011;56317;27.658;85.326;2022-09-24T04:18:13;23.20;;;16.30;;
69203;SDS011;56317;27.658;85.326;2022-09-24T04:20:40;27.55;;;15.95;;
69203;SDS011;56317;27.658;85.326;2022-09-24T04:23:08;21.80;;;14.07;;
69203;SDS011;56317;27.658;85.326;2022-09-24T04:25:36;23.30;;;15.73;;
69203;SDS011;56317;27.658;85.326;2022-09-24T04:28:05;25.35;;;15.63;;
69203;SDS011;56317;27.658;85.326;2022-09-24T04:30:34;23.23;;;15.35;;
69203;SDS011;56317;27.658;85.326;2022-09-24T04:33:02;21.70;;;15.55;;
69203;SDS011;56317;27.658;85.326;2022-09-24T04:35:32;22.70;;;14.02;;
69203;SDS011;56317;27.658;85.326;2022-09-24T04:38:03;21.50;;;12.98;;
69203;SDS011;56317;27.658;85.326;2022-09-24T04:40:30;16.88;;;12.50;;
69203;SDS011;56317;27.658;85.326;2022-09-24T04:42:58;19.23;;;12.52;;
69203;SDS011;56317;27.658;85.326;2022-09-24T04:45:25;20.48;;;12.68;;
69203;SDS011;56317;27.658;85.326;2022-09-24T04:47:53;24.25;;;11.93;;
69203;SDS011;56317;27.658;85.326;2022-09-24T04:50:27;19.73;;;12.88;;
69203;SDS011;56317;27.658;85.326;2022-09-24T04:52:58;20.90;;;12.70;;
69203;SDS011;56317;27.658;85.326;2022-09-24T04:55:26;20.92;;;13.40;;
69203;SDS011;56317;27.658;85.326;2022-09-24T04:57:57;18.00;;;12.20;;
69203;SDS011;56317;27.658;85.326;2022-09-24T05:00:24;18.55;;;12.90;;
69203;SDS011;56317;27.658;85.326;2022-09-24T05:02:55;18.27;;;12.50;;
69203;SDS011;56317;27.658;85.326;2022-09-24T05:05:28;19.98;;;11.95;;
69203;SDS011;56317;27.658;85.326;2022-09-24T05:07:57;15.40;;;11.27;;
69203;SDS011;56317;27.658;85.326;2022-09-24T05:10:24;18.95;;;11.55;;
69203;SDS011;56317;27.658;85.326;2022-09-24T05:12:53;22.92;;;12.98;;
69203;SDS011;56317;27.658;85.326;2022-09-24T05:15:20;17.85;;;11.80;;
69203;SDS011;56317;27.658;85.326;2022-09-24T05:17:47;20.40;;;11.43;;
69203;SDS011;56317;27.658;85.326;2022-09-24T05:20:15;14.38;;;10.48;;
69203;SDS011;56317;27.658;85.326;2022-09-24T05:22:46;15.20;;;10.40;;
69203;SDS011;56317;27.658;85.326;2022-09-24T05:25:14;15.55;;;9.50;;
69203;SDS011;56317;27.658;85.326;2022-09-24T05:27:46;13.32;;;9.48;;
69203;SDS011;56317;27.658;85.326;2022-09-24T05:30:18;17.02;;;10.43;;
69203;SDS011;56317;27.658;85.326;2022-09-24T05:32:48;13.35;;;9.45;;
69203;SDS011;56317;27.658;85.326;2022-09-24T05:35:18;12.20;;;8.90;;
69203;SDS011;56317;27.658;85.326;2022-09-24T05:37:47;13.38;;;9.15;;
69203;SDS011;56317;27.658;85.326;2022-09-24T05:40:17;11.82;;;9.13;;
69203;SDS011;56317;27.658;85.326;2022-09-24T05:43:05;12.32;;;8.02;;
69203;SDS011;56317;27.658;85.326;2022-09-24T05:45:33;13.10;;;8.45;;
69203;SDS011;56317;27.658;85.326;2022-09-24T05:48:03;12.18;;;8.63;;
69203;SDS011;56317;27.658;85.326;2022-09-24T05:50:30;16.88;;;10.02;;
69203;SDS011;56317;27.658;85.326;2022-09-24T05:52:59;15.63;;;9.55;;
69203;SDS011;56317;27.658;85.326;2022-09-24T05:55:31;16.08;;;9.38;;
69203;SDS011;56317;27.658;85.326;2022-09-24T05:58:02;13.25;;;9.10;;
69203;SDS011;56317;27.658;85.326;2022-09-24T06:00:31;12.30;;;9.85;;
69203;SDS011;56317;27.658;85.326;2022-09-24T06:03:13;16.23;;;12.48;;
69203;SDS011;56317;27.658;85.326;2022-09-24T06:05:51;17.58;;;11.57;;
69203;SDS011;56317;27.658;85.326;2022-09-24T06:08:18;16.13;;;11.48;;
69203;SDS011;56317;27.658;85.326;2022-09-24T06:10:46;16.05;;;10.85;;
69203;SDS011;56317;27.658;85.326;2022-09-24T06:13:15;18.98;;;10.85;;
69203;SDS011;56317;27.658;85.326;2022-09-24T06:15:45;17.67;;;11.32;;
69203;SDS011;56317;27.658;85.326;2022-09-24T06:18:12;18.50;;;12.07;;
69203;SDS011;56317;27.658;85.326;2022-09-24T06:20:39;20.67;;;13.07;;
69203;SDS011;56317;27.658;85.326;2022-09-24T06:23:06;18.90;;;12.90;;
69203;SDS011;56317;27.658;85.326;2022-09-24T06:25:34;18.25;;;11.85;;
69203;SDS011;56317;27.658;85.326;2022-09-24T06:28:01;24.85;;;14.23;;
69203;SDS011;56317;27.658;85.326;2022-09-24T06:30:33;24.30;;;14.23;;
69203;SDS011;56317;27.658;85.326;2022-09-24T06:33:04;21.00;;;11.93;;
69203;SDS011;56317;27.658;85.326;2022-09-24T06:35:39;21.20;;;11.02;;
69203;SDS011;56317;27.658;85.326;2022-09-24T06:38:08;18.20;;;11.10;;
69203;SDS011;56317;27.658;85.326;2022-09-24T06:40:37;24.40;;;12.27;;
69203;SDS011;56317;27.658;85.326;2022-09-24T06:43:05;24.50;;;11.75;;
69203;SDS011;56317;27.658;85.326;2022-09-24T06:45:35;18.15;;;10.75;;
69203;SDS011;56317;27.658;85.326;2022-09-24T06:48:02;20.40;;;10.52;;
69203;SDS011;56317;27.658;85.326;2022-09-24T06:50:31;19.17;;;10.30;;
69203;SDS011;56317;27.658;85.326;2022-09-24T06:53:02;19.75;;;10.02;;
69203;SDS011;56317;27.658;85.326;2022-09-24T06:55:30;16.40;;;9.57;;
69203;SDS011;56317;27.658;85.326;2022-09-24T06:58:02;13.82;;;8.52;;
69203;SDS011;56317;27.658;85.326;2022-09-24T07:00:31;15.32;;;8.88;;
69203;SDS011;56317;27.658;85.326;2022-09-24T07:02:59;14.13;;;7.75;;
69203;SDS011;56317;27.658;85.326;2022-09-24T07:05:26;15.93;;;8.10;;
69203;SDS011;56317;27.658;85.326;2022-09-24T07:07:57;11.88;;;8.15;;
69203;SDS011;56317;27.658;85.326;2022-09-24T07:10:24;14.93;;;8.13;;
69203;SDS011;56317;27.658;85.326;2022-09-24T07:12:52;11.65;;;8.27;;
69203;SDS011;56317;27.658;85.326;2022-09-24T07:15:20;21.77;;;9.38;;
69203;SDS011;56317;27.658;85.326;2022-09-24T07:17:47;14.02;;;8.00;;
69203;SDS011;56317;27.658;85.326;2022-09-24T07:20:14;14.95;;;7.80;;
69203;SDS011;56317;27.658;85.326;2022-09-24T07:22:41;16.45;;;7.93;;
69203;SDS011;56317;27.658;85.326;2022-09-24T07:25:11;10.90;;;7.03;;
69203;SDS011;56317;27.658;85.326;2022-09-24T07:27:38;16.75;;;7.80;;
69203;SDS011;56317;27.658;85.326;2022-09-24T07:30:06;12.27;;;8.07;;
69203;SDS011;56317;27.658;85.326;2022-09-24T07:32:35;12.47;;;7.27;;
69203;SDS011;56317;27.658;85.326;2022-09-24T07:35:02;13.85;;;8.02;;
69203;SDS011;56317;27.658;85.326;2022-09-24T07:37:29;11.02;;;7.40;;
69203;SDS011;56317;27.658;85.326;2022-09-24T07:39:59;16.55;;;7.65;;
69203;SDS011;56317;27.658;85.326;2022-09-24T07:42:26;12.55;;;7.93;;
69203;SDS011;56317;27.658;85.326;2022-09-24T07:44:54;14.57;;;6.90;;
69203;SDS011;56317;27.658;85.326;2022-09-24T07:47:22;10.85;;;6.88;;
69203;SDS011;56317;27.658;85.326;2022-09-24T07:49:49;16.08;;;8.23;;
69203;SDS011;56317;27.658;85.326;2022-09-24T07:52:16;12.18;;;6.97;;
69203;SDS011;56317;27.658;85.326;2022-09-24T07:54:44;11.52;;;7.10;;
69203;SDS011;56317;27.658;85.326;2022-09-24T07:57:11;12.48;;;6.50;;
69203;SDS011;56317;27.658;85.326;2022-09-24T07:59:38;9.73;;;6.28;;
69203;SDS011;56317;27.658;85.326;2022-09-24T08:02:15;11.00;;;6.43;;
69203;SDS011;56317;27.658;85.326;2022-09-24T08:04:45;8.38;;;5.80;;
69203;SDS011;56317;27.658;85.326;2022-09-24T08:07:13;10.95;;;6.88;;
69203;SDS011;56317;27.658;85.326;2022-09-24T08:09:40;13.25;;;7.10;;
69203;SDS011;56317;27.658;85.326;2022-09-24T08:12:07;17.55;;;7.55;;
69203;SDS011;56317;27.658;85.326;2022-09-24T08:14:35;11.32;;;6.88;;
69203;SDS011;56317;27.658;85.326;2022-09-24T08:17:05;15.48;;;7.30;;
69203;SDS011;56317;27.658;85.326;2022-09-24T08:21:59;20.88;;;8.00;;
69203;SDS011;56317;27.658;85.326;2022-09-24T08:24:26;11.95;;;7.80;;
69203;SDS011;56317;27.658;85.326;2022-09-24T08:26:53;11.30;;;7.47;;
69203;SDS011;56317;27.658;85.326;2022-09-24T08:29:20;11.27;;;7.53;;
69203;SDS011;56317;27.658;85.326;2022-09-24T08:31:47;13.50;;;7.22;;
69203;SDS011;56317;27.658;85.326;2022-09-24T08:34:14;11.82;;;7.95;;
69203;SDS011;56317;27.658;85.326;2022-09-24T08:36:42;13.98;;;7.95;;
69203;SDS011;56317;27.658;85.326;2022-09-24T08:39:09;15.45;;;10.00;;
69203;SDS011;56317;27.658;85.326;2022-09-24T08:42:03;15.88;;;9.02;;
69203;SDS011;56317;27.658;85.326;2022-09-24T08:44:39;14.95;;;7.82;;
69203;SDS011;56317;27.658;85.326;2022-09-24T09:11:18;13.88;;;8.88;;
69203;SDS011;56317;27.658;85.326;2022-09-24T09:13:56;13.55;;;7.28;;
69203;SDS011;56317;27.658;85.326;2022-09-24T09:17:04;14.15;;;8.50;;
69203;SDS011;56317;27.658;85.326;2022-09-24T09:19:59;15.35;;;8.07;;
69203;SDS011;56317;27.658;85.326;2022-09-24T09:22:33;16.45;;;8.65;;
69203;SDS011;56317;27.658;85.326;2022-09-24T09:25:21;13.05;;;8.55;;
69203;SDS011;56317;27.658;85.326;2022-09-24T09:28:00;16.27;;;9.45;;
69203;SDS011;56317;27.658;85.326;2022-09-24T09:30:48;14.68;;;9.07;;
69203;SDS011;56317;27.658;85.326;2022-09-24T09:33:52;14.35;;;8.82;;
69203;SDS011;56317;27.658;85.326;2022-09-24T09:36:51;19.67;;;9.60;;
69203;SDS011;56317;27.658;85.326;2022-09-24T09:39:50;15.55;;;9.75;;
69203;SDS011;56317;27.658;85.326;2022-09-24T09:42:37;14.15;;;9.20;;
69203;SDS011;56317;27.658;85.326;2022-09-24T09:48:12;15.80;;;9.10;;
69203;SDS011;56317;27.658;85.326;2022-09-24T09:50:43;14.35;;;8.65;;
69203;SDS011;56317;27.658;85.326;2022-09-24T09:53:24;18.25;;;8.90;;
69203;SDS011;56317;27.658;85.326;2022-09-24T09:58:31;14.90;;;9.95;;
69203;SDS011;56317;27.658;85.326;2022-09-24T10:01:05;13.50;;;9.63;;
69203;SDS011;56317;27.658;85.326;2022-09-24T10:03:45;21.17;;;11.45;;
69203;SDS011;56317;27.658;85.326;2022-09-24T10:06:23;18.17;;;12.20;;
69203;SDS011;56317;27.658;85.326;2022-09-24T10:08:52;22.92;;;11.82;;
69203;SDS011;56317;27.658;85.326;2022-09-24T10:11:21;19.98;;;12.02;;
69203;SDS011;56317;27.658;85.326;2022-09-24T10:14:10;20.73;;;12.18;;
69203;SDS011;56317;27.658;85.326;2022-09-24T10:16:43;27.00;;;13.65;;
69203;SDS011;56317;27.658;85.326;2022-09-24T10:19:20;23.90;;;13.07;;
69203;SDS011;56317;27.658;85.326;2022-09-24T10:21:49;28.60;;;15.40;;
69203;SDS011;56317;27.658;85.326;2022-09-24T10:24:19;27.20;;;14.05;;
69203;SDS011;56317;27.658;85.326;2022-09-24T10:26:49;25.02;;;14.32;;
69203;SDS011;56317;27.658;85.326;2022-09-24T10:29:18;21.55;;;13.02;;
69203;SDS011;56317;27.658;85.326;2022-09-24T10:32:12;24.38;;;13.43;;
69203;SDS011;56317;27.658;85.326;2022-09-24T10:34:52;25.52;;;14.30;;
69203;SDS011;56317;27.658;85.326;2022-09-24T10:37:25;23.23;;;12.98;;
69203;SDS011;56317;27.658;85.326;2022-09-24T10:39:57;27.23;;;14.27;;
69203;SDS011;56317;27.658;85.326;2022-09-24T10:42:36;21.92;;;13.60;;
69203;SDS011;56317;27.658;85.326;2022-09-24T10:45:05;26.85;;;13.25;;
69203;SDS011;56317;27.658;85.326;2022-09-24T10:47:41;28.65;;;15.18;;
69203;SDS011;56317;27.658;85.326;2022-09-24T10:50:21;23.45;;;13.43;;
69203;SDS011;56317;27.658;85.326;2022-09-24T11:01:10;22.85;;;14.38;;
69203;SDS011;56317;27.658;85.326;2022-09-24T11:06:49;28.38;;;14.68;;
69203;SDS011;56317;27.658;85.326;2022-09-24T11:18:29;25.35;;;13.88;;
69203;SDS011;56317;27.658;85.326;2022-09-24T11:21:24;25.23;;;13.63;;
69203;SDS011;56317;27.658;85.326;2022-09-24T11:31:55;24.95;;;15.13;;
69203;SDS011;56317;27.658;85.326;2022-09-24T11:46:10;28.67;;;15.57;;
69203;SDS011;56317;27.658;85.326;2022-09-24T11:54:09;25.92;;;15.43;;
69203;SDS011;56317;27.658;85.326;2022-09-24T11:56:54;33.03;;;15.50;;
69203;SDS011;56317;27.658;85.326;2022-09-24T11:59:33;29.65;;;16.75;;
69203;SDS011;56317;27.658;85.326;2022-09-24T12:08:27;31.48;;;18.45;;
69203;SDS011;56317;27.658;85.326;2022-09-24T12:13:51;34.63;;;17.95;;
69203;SDS011;56317;27.658;85.326;2022-09-24T12:16:37;36.30;;;17.77;;
69203;SDS011;56317;27.658;85.326;2022-09-24T12:19:26;31.93;;;19.00;;
69203;SDS011;56317;27.658;85.326;2022-09-24T12:22:19;41.70;;;19.55;;
69203;SDS011;56317;27.658;85.326;2022-09-24T12:24:54;40.20;;;19.17;;
69203;SDS011;56317;27.658;85.326;2022-09-24T12:27:34;40.50;;;20.45;;
69203;SDS011;56317;27.658;85.326;2022-09-24T12:38:14;46.35;;;21.23;;
69203;SDS011;56317;27.658;85.326;2022-09-24T12:40:51;48.20;;;24.45;;
69203;SDS011;56317;27.658;85.326;2022-09-24T12:43:33;74.57;;;32.33;;
69203;SDS011;56317;27.658;85.326;2022-09-24T12:46:05;64.70;;;28.33;;
69203;SDS011;56317;27.658;85.326;2022-09-24T12:48:41;62.10;;;32.80;;
69203;SDS011;56317;27.658;85.326;2022-09-24T12:53:42;51.20;;;23.58;;
69203;SDS011;56317;27.658;85.326;2022-09-24T12:56:26;40.72;;;21.42;;
69203;SDS011;56317;27.658;85.326;2022-09-24T12:58:55;45.78;;;23.20;;
69203;SDS011;56317;27.658;85.326;2022-09-24T13:06:42;44.20;;;22.92;;
69203;SDS011;56317;27.658;85.326;2022-09-24T13:12:03;52.40;;;24.70;;
69203;SDS011;56317;27.658;85.326;2022-09-24T13:14:31;49.95;;;25.23;;
69203;SDS011;56317;27.658;85.326;2022-09-24T13:17:03;62.08;;;32.60;;
69203;SDS011;56317;27.658;85.326;2022-09-24T13:19:41;68.40;;;36.30;;
69203;SDS011;56317;27.658;85.326;2022-09-24T13:27:37;73.25;;;39.00;;
69203;SDS011;56317;27.658;85.326;2022-09-24T13:38:36;63.47;;;31.92;;
69203;SDS011;56317;27.658;85.326;2022-09-24T13:41:21;58.53;;;31.02;;
69203;SDS011;56317;27.658;85.326;2022-09-24T13:44:00;58.38;;;30.38;;
69203;SDS011;56317;27.658;85.326;2022-09-24T13:46:38;60.28;;;29.50;;
69203;SDS011;56317;27.658;85.326;2022-09-24T13:49:11;53.20;;;28.15;;
69203;SDS011;56317;27.658;85.326;2022-09-24T13:51:51;70.78;;;31.50;;
69203;SDS011;56317;27.658;85.326;2022-09-24T13:54:34;42.08;;;23.80;;
69203;SDS011;56317;27.658;85.326;2022-09-24T13:57:11;42.70;;;22.52;;
69203;SDS011;56317;27.658;85.326;2022-09-24T14:00:11;45.22;;;23.58;;
69203;SDS011;56317;27.658;85.326;2022-09-24T14:02:50;42.97;;;23.23;;
69203;SDS011;56317;27.658;85.326;2022-09-24T14:05:18;38.90;;;20.98;;
69203;SDS011;56317;27.658;85.326;2022-09-24T14:08:00;35.15;;;21.15;;
69203;SDS011;56317;27.658;85.326;2022-09-24T14:10:31;38.83;;;22.80;;
69203;SDS011;56317;27.658;85.326;2022-09-24T14:18:17;45.05;;;24.38;;
69203;SDS011;56317;27.658;85.326;2022-09-24T14:20:44;41.47;;;22.13;;
69203;SDS011;56317;27.658;85.326;2022-09-24T14:26:05;43.67;;;24.02;;
69203;SDS011;56317;27.658;85.326;2022-09-24T14:28:39;41.05;;;23.83;;
69203;SDS011;56317;27.658;85.326;2022-09-24T14:31:06;45.00;;;23.25;;
69203;SDS011;56317;27.658;85.326;2022-09-24T14:33:34;45.65;;;23.38;;
69203;SDS011;56317;27.658;85.326;2022-09-24T14:36:03;47.53;;;24.25;;
69203;SDS011;56317;27.658;85.326;2022-09-24T14:38:35;53.17;;;26.70;;
69203;SDS011;56317;27.658;85.326;2022-09-24T14:41:26;49.90;;;26.67;;
69203;SDS011;56317;27.658;85.326;2022-09-24T14:44:13;53.60;;;27.92;;
69203;SDS011;56317;27.658;85.326;2022-09-24T14:46:50;50.25;;;26.40;;
69203;SDS011;56317;27.658;85.326;2022-09-24T14:49:26;46.20;;;24.58;;
69203;SDS011;56317;27.658;85.326;2022-09-24T14:52:23;41.08;;;23.30;;
69203;SDS011;56317;27.658;85.326;2022-09-24T14:55:00;43.60;;;24.52;;
69203;SDS011;56317;27.658;85.326;2022-09-24T14:57:34;40.70;;;23.70;;
69203;SDS011;56317;27.658;85.326;2022-09-24T15:00:19;41.13;;;23.88;;
69203;SDS011;56317;27.658;85.326;2022-09-24T15:02:58;38.63;;;22.92;;
69203;SDS011;56317;27.658;85.326;2022-09-24T15:05:29;44.65;;;24.33;;
69203;SDS011;56317;27.658;85.326;2022-09-24T15:11:13;38.15;;;22.13;;
69203;SDS011;56317;27.658;85.326;2022-09-24T15:13:39;39.35;;;23.15;;
69203;SDS011;56317;27.658;85.326;2022-09-24T15:18:49;48.65;;;23.23;;
69203;SDS011;56317;27.658;85.326;2022-09-24T15:21:23;43.53;;;23.50;;
69203;SDS011;56317;27.658;85.326;2022-09-24T15:23:52;46.17;;;22.98;;
69203;SDS011;56317;27.658;85.326;2022-09-24T15:26:21;45.63;;;22.35;;
69203;SDS011;56317;27.658;85.326;2022-09-24T15:28:52;40.55;;;22.80;;
69203;SDS011;56317;27.658;85.326;2022-09-24T15:31:20;43.03;;;23.30;;
69203;SDS011;56317;27.658;85.326;2022-09-24T15:33:47;44.83;;;23.13;;
69203;SDS011;56317;27.658;85.326;2022-09-24T15:36:15;51.72;;;24.45;;
69203;SDS011;56317;27.658;85.326;2022-09-24T15:38:46;48.58;;;23.08;;
69203;SDS011;56317;27.658;85.326;2022-09-24T15:41:17;44.83;;;23.75;;
69203;SDS011;56317;27.658;85.326;2022-09-24T15:43:44;45.53;;;23.70;;
69203;SDS011;56317;27.658;85.326;2022-09-24T15:46:11;41.47;;;21.73;;
69203;SDS011;56317;27.658;85.326;2022-09-24T15:48:38;46.45;;;26.45;;
69203;SDS011;56317;27.658;85.326;2022-09-24T15:51:08;48.95;;;23.70;;
69203;SDS011;56317;27.658;85.326;2022-09-24T15:53:36;49.58;;;22.52;;
69203;SDS011;56317;27.658;85.326;2022-09-24T15:56:03;41.55;;;23.20;;
69203;SDS011;56317;27.658;85.326;2022-09-24T15:58:32;36.30;;;20.85;;
69203;SDS011;56317;27.658;85.326;2022-09-24T16:00:59;43.95;;;23.45;;
69203;SDS011;56317;27.658;85.326;2022-09-24T16:03:28;46.30;;;23.58;;
69203;SDS011;56317;27.658;85.326;2022-09-24T16:05:56;37.40;;;22.58;;
69203;SDS011;56317;27.658;85.326;2022-09-24T16:08:25;42.38;;;21.58;;
69203;SDS011;56317;27.658;85.326;2022-09-24T16:10:52;34.72;;;21.75;;
69203;SDS011;56317;27.658;85.326;2022-09-24T16:13:22;37.78;;;22.60;;
69203;SDS011;56317;27.658;85.326;2022-09-24T16:15:50;41.55;;;22.13;;
69203;SDS011;56317;27.658;85.326;2022-09-24T16:18:17;42.30;;;23.50;;
69203;SDS011;56317;27.658;85.326;2022-09-24T16:20:46;42.35;;;22.23;;
69203;SDS011;56317;27.658;85.326;2022-09-24T16:23:15;39.45;;;22.95;;
69203;SDS011;56317;27.658;85.326;2022-09-24T16:25:56;40.17;;;23.85;;
69203;SDS011;56317;27.658;85.326;2022-09-24T16:28:24;49.08;;;23.92;;
69203;SDS011;56317;27.658;85.326;2022-09-24T16:30:52;49.17;;;24.80;;
69203;SDS011;56317;27.658;85.326;2022-09-24T16:33:20;49.35;;;25.23;;
69203;SDS011;56317;27.658;85.326;2022-09-24T16:35:48;41.70;;;24.08;;
69203;SDS011;56317;27.658;85.326;2022-09-24T16:38:16;44.90;;;23.77;;
69203;SDS011;56317;27.658;85.326;2022-09-24T16:40:43;45.65;;;24.98;;
69203;SDS011;56317;27.658;85.326;2022-09-24T16:43:10;45.95;;;24.27;;
69203;SDS011;56317;27.658;85.326;2022-09-24T16:45:38;50.17;;;24.65;;
69203;SDS011;56317;27.658;85.326;2022-09-24T16:48:05;44.97;;;23.88;;
69203;SDS011;56317;27.658;85.326;2022-09-24T16:50:32;47.92;;;27.08;;
69203;SDS011;56317;27.658;85.326;2022-09-24T16:53:00;45.03;;;25.55;;
69203;SDS011;56317;27.658;85.326;2022-09-24T16:55:27;52.22;;;25.90;;
69203;SDS011;56317;27.658;85.326;2022-09-24T16:57:54;48.10;;;24.65;;
69203;SDS011;56317;27.658;85.326;2022-09-24T17:00:21;43.92;;;24.27;;
69203;SDS011;56317;27.658;85.326;2022-09-24T17:02:48;56.05;;;25.35;;
69203;SDS011;56317;27.658;85.326;2022-09-24T17:05:15;41.72;;;22.77;;
69203;SDS011;56317;27.658;85.326;2022-09-24T17:07:42;43.80;;;23.42;;
69203;SDS011;56317;27.658;85.326;2022-09-24T17:10:09;43.38;;;23.02;;
69203;SDS011;56317;27.658;85.326;2022-09-24T17:12:48;42.85;;;23.08;;
69203;SDS011;56317;27.658;85.326;2022-09-24T17:15:17;39.60;;;21.48;;
69203;SDS011;56317;27.658;85.326;2022-09-24T17:17:45;45.55;;;21.17;;